Christian Reinauer — WDA6472 — position and weather

sailwx.info

Track history (hours):
 
Tides and Currents Weather Stations Pressure Air Temp Water Temp Dewpoint Dewpoint Depression Visibility Wind Speed Wind Dir Waves Ship Positions

Christian Reinauer

Owner: REINAUER TRANSPORTATION CO LLC, STATEN ISLAND, NY. More information available from US FCC via Universal Licensing System and Coast Guard Vessel Documentation Center.

Last reported at 2016-Feb-11 03:31 UTC. Time now 2016-Feb-11 04:20 UTC.
Position N 27°57' W 082°27'.

Length 170 m; draft 7.4 m.

Type: Tanker. MMSI: 366832740.

Date/timePositionNaut miles runAvg speedWind from/ knotsBaromVisibWave heightAir tempDewpointWater temp
2016-Feb-11 03:31N 27°57' W 082°27'0 0.0
2016-Feb-11 02:31N 27°57' W 082°27'0 0.0
2016-Feb-11 01:31N 27°57' W 082°27'0 0.0
2016-Feb-11 00:31N 27°57' W 082°27'0 0.0
2016-Feb-10 23:31N 27°57' W 082°27'0 0.0
2016-Feb-10 22:31N 27°57' W 082°27'0 0.0
2016-Feb-10 21:31N 27°57' W 082°27'0 0.0
2016-Feb-10 20:31N 27°57' W 082°27'0 0.0
2016-Feb-10 19:31N 27°57' W 082°27'0 0.0
2016-Feb-10 18:31N 27°57' W 082°27'0 0.0
2016-Feb-10 17:31N 27°57' W 082°27'2 2.3
2016-Feb-10 16:32N 27°55' W 082°26'0 0.0
2016-Feb-10 15:32N 27°55' W 082°26'0 0.0
2016-Feb-10 14:32N 27°55' W 082°26'0 0.0
2016-Feb-10 13:31N 27°55' W 082°26'0 0.0
2016-Feb-10 12:31N 27°55' W 082°26'0 0.0
2016-Feb-10 11:31N 27°55' W 082°26'0 0.0
2016-Feb-10 10:31N 27°55' W 082°26'0 0.0
2016-Feb-10 09:28N 27°55' W 082°26'0 0.0
2016-Feb-10 08:31N 27°55' W 082°26'0 0.0
2016-Feb-10 07:31N 27°55' W 082°26'0 0.0
2016-Feb-10 06:31N 27°55' W 082°26'0 0.0
2016-Feb-10 05:31N 27°55' W 082°26'0 0.0
2016-Feb-10 04:31N 27°55' W 082°26'0 0.0
2016-Feb-10 03:31N 27°55' W 082°26'0 0.0
2016-Feb-10 02:31N 27°55' W 082°26'0 0.0
2016-Feb-10 01:31N 27°55' W 082°26'0 0.0
2016-Feb-10 00:31N 27°55' W 082°26'3 2.7
2016-Feb-09 23:33N 27°53' W 082°26'8 8.4
2016-Feb-09 22:33N 27°47' W 082°34'4 4.4
2016-Feb-09 21:33N 27°52' W 082°33'0 0.0
2016-Feb-09 20:33N 27°52' W 082°33'0 0.0
2016-Feb-09 19:33N 27°52' W 082°33'0 0.0
2016-Feb-09 18:30N 27°52' W 082°33'0 0.0
2016-Feb-09 16:33N 27°52' W 082°33'0 0.0
2016-Feb-09 15:31N 27°52' W 082°33'0 0.0
2016-Feb-09 14:04N 27°52' W 082°33'0 0.0
2016-Feb-09 13:31N 27°52' W 082°33'0 0.0
2016-Feb-09 12:31N 27°52' W 082°33'0 0.0
2016-Feb-09 11:31N 27°52' W 082°33'0 0.0
2016-Feb-09 10:31N 27°52' W 082°33'0 0.0
2016-Feb-09 09:31N 27°52' W 082°33'0 0.0
2016-Feb-09 08:31N 27°52' W 082°33'0 0.0
2016-Feb-09 07:31N 27°52' W 082°33'0 0.0
2016-Feb-09 06:31N 27°52' W 082°33'0 0.0
2016-Feb-09 05:31N 27°52' W 082°33'0 0.0
2016-Feb-09 04:31N 27°52' W 082°33'0 0.0
2016-Feb-09 03:31N 27°52' W 082°33'0 0.0
2016-Feb-09 02:31N 27°52' W 082°33'0 0.0
2016-Feb-09 01:31N 27°52' W 082°33'0 0.0
2016-Feb-09 00:31N 27°52' W 082°33'0 0.0
2016-Feb-08 23:31N 27°52' W 082°33'0 0.0
2016-Feb-08 22:31N 27°52' W 082°33'0 0.0
2016-Feb-08 21:31N 27°52' W 082°33'1 1.5
2016-Feb-08 20:33N 27°50' W 082°34'6 6.2
2016-Feb-08 19:33N 27°45' W 082°32'188 4.1
2016-Feb-06 21:33N 25°33' W 080°02'8 8.2
2016-Feb-06 20:33N 25°41' W 080°01'9 8.6
2016-Feb-06 19:33N 25°50' W 080°01'1111.1
2016-Feb-06 18:33N 26°01' W 080°03'6 0.3
2016-Feb-06 00:33N 26°06' W 080°07'4 3.5
2016-Feb-05 23:25N 26°04' W 080°03'3 4.0
2016-Feb-05 22:32N 26°01' W 080°02'7 6.9
2016-Feb-05 21:33N 25°54' W 080°02'8 8.2
2016-Feb-05 20:33N 25°46' W 080°01'1111.1
2016-Feb-05 19:33N 25°35' W 080°01'1211.5
2016-Feb-05 18:33N 25°23' W 080°02'  
Track history (hours):
 
Tides and Currents Weather Stations Pressure Air Temp Water Temp Dewpoint Dewpoint Depression Visibility Wind Speed Wind Dir Waves Ship Positions

Christian Reinauer

Owner: REINAUER TRANSPORTATION CO LLC, STATEN ISLAND, NY. More information available from US FCC via Universal Licensing System and Coast Guard Vessel Documentation Center.

Last reported at 2016-Feb-11 03:31 UTC. Time now 2016-Feb-11 04:20 UTC.
Position N 27°57' W 082°27'.

Length 170 m; draft 7.4 m.

Type: Tanker. MMSI: 366832740.

Date/timePositionNaut miles runAvg speedWind from/ knotsBaromVisibWave heightAir tempDewpointWater temp
2016-Feb-11 03:31N 27°57' W 082°27'0 0.0
2016-Feb-11 02:31N 27°57' W 082°27'0 0.0
2016-Feb-11 01:31N 27°57' W 082°27'0 0.0
2016-Feb-11 00:31N 27°57' W 082°27'0 0.0
2016-Feb-10 23:31N 27°57' W 082°27'0 0.0
2016-Feb-10 22:31N 27°57' W 082°27'0 0.0
2016-Feb-10 21:31N 27°57' W 082°27'0 0.0
2016-Feb-10 20:31N 27°57' W 082°27'0 0.0
2016-Feb-10 19:31N 27°57' W 082°27'0 0.0
2016-Feb-10 18:31N 27°57' W 082°27'0 0.0
2016-Feb-10 17:31N 27°57' W 082°27'2 2.3
2016-Feb-10 16:32N 27°55' W 082°26'0 0.0
2016-Feb-10 15:32N 27°55' W 082°26'0 0.0
2016-Feb-10 14:32N 27°55' W 082°26'0 0.0
2016-Feb-10 13:31N 27°55' W 082°26'0 0.0
2016-Feb-10 12:31N 27°55' W 082°26'0 0.0
2016-Feb-10 11:31N 27°55' W 082°26'0 0.0
2016-Feb-10 10:31N 27°55' W 082°26'0 0.0
2016-Feb-10 09:28N 27°55' W 082°26'0 0.0
2016-Feb-10 08:31N 27°55' W 082°26'0 0.0
2016-Feb-10 07:31N 27°55' W 082°26'0 0.0
2016-Feb-10 06:31N 27°55' W 082°26'0 0.0
2016-Feb-10 05:31N 27°55' W 082°26'0 0.0
2016-Feb-10 04:31N 27°55' W 082°26'0 0.0
2016-Feb-10 03:31N 27°55' W 082°26'0 0.0
2016-Feb-10 02:31N 27°55' W 082°26'0 0.0
2016-Feb-10 01:31N 27°55' W 082°26'0 0.0
2016-Feb-10 00:31N 27°55' W 082°26'3 2.7
2016-Feb-09 23:33N 27°53' W 082°26'8 8.4
2016-Feb-09 22:33N 27°47' W 082°34'4 4.4
2016-Feb-09 21:33N 27°52' W 082°33'0 0.0
2016-Feb-09 20:33N 27°52' W 082°33'0 0.0
2016-Feb-09 19:33N 27°52' W 082°33'0 0.0
2016-Feb-09 18:30N 27°52' W 082°33'0 0.0
2016-Feb-09 16:33N 27°52' W 082°33'0 0.0
2016-Feb-09 15:31N 27°52' W 082°33'0 0.0
2016-Feb-09 14:04N 27°52' W 082°33'0 0.0
2016-Feb-09 13:31N 27°52' W 082°33'0 0.0
2016-Feb-09 12:31N 27°52' W 082°33'0 0.0
2016-Feb-09 11:31N 27°52' W 082°33'0 0.0
2016-Feb-09 10:31N 27°52' W 082°33'0 0.0
2016-Feb-09 09:31N 27°52' W 082°33'0 0.0
2016-Feb-09 08:31N 27°52' W 082°33'0 0.0
2016-Feb-09 07:31N 27°52' W 082°33'0 0.0
2016-Feb-09 06:31N 27°52' W 082°33'0 0.0
2016-Feb-09 05:31N 27°52' W 082°33'0 0.0
2016-Feb-09 04:31N 27°52' W 082°33'0 0.0
2016-Feb-09 03:31N 27°52' W 082°33'0 0.0
2016-Feb-09 02:31N 27°52' W 082°33'0 0.0
2016-Feb-09 01:31N 27°52' W 082°33'0 0.0
2016-Feb-09 00:31N 27°52' W 082°33'0 0.0
2016-Feb-08 23:31N 27°52' W 082°33'0 0.0
2016-Feb-08 22:31N 27°52' W 082°33'0 0.0
2016-Feb-08 21:31N 27°52' W 082°33'1 1.5
2016-Feb-08 20:33N 27°50' W 082°34'6 6.2
2016-Feb-08 19:33N 27°45' W 082°32'188 4.1
2016-Feb-06 21:33N 25°33' W 080°02'8 8.2
2016-Feb-06 20:33N 25°41' W 080°01'9 8.6
2016-Feb-06 19:33N 25°50' W 080°01'1111.1
2016-Feb-06 18:33N 26°01' W 080°03'6 0.3
2016-Feb-06 00:33N 26°06' W 080°07'4 3.5
2016-Feb-05 23:25N 26°04' W 080°03'3 4.0
2016-Feb-05 22:32N 26°01' W 080°02'7 6.9
2016-Feb-05 21:33N 25°54' W 080°02'8 8.2
2016-Feb-05 20:33N 25°46' W 080°01'1111.1
2016-Feb-05 19:33N 25°35' W 080°01'1211.5
2016-Feb-05 18:33N 25°23' W 080°02'  

Dump ship's entire track history